createdAt,value
2018-05-15T00:00:44.920Z,65.20
2018-05-15T00:03:12.078Z,65.50
2018-05-15T00:05:38.478Z,65.50
2018-05-15T00:08:05.640Z,65.70
2018-05-15T00:10:32.805Z,65.20
2018-05-15T00:12:59.255Z,65.20
2018-05-15T00:15:25.661Z,65.10
2018-05-15T00:17:52.858Z,64.50
2018-05-15T00:20:19.271Z,64.50
2018-05-15T00:22:46.392Z,64.00
2018-05-15T00:25:13.547Z,65.20
2018-05-15T00:27:40.032Z,65.30
2018-05-15T00:30:06.411Z,64.60
2018-05-15T00:32:33.527Z,64.80
2018-05-15T00:34:59.945Z,64.70
2018-05-15T00:37:26.352Z,64.70
2018-05-15T00:39:52.742Z,64.70
2018-05-15T00:42:19.140Z,65.40
2018-05-15T00:44:45.546Z,64.90
2018-05-15T00:47:11.981Z,64.80
2018-05-15T00:49:38.409Z,64.90
2018-05-15T00:52:04.814Z,65.20
2018-05-15T00:54:32.714Z,65.00
2018-05-15T00:56:59.145Z,65.00
2018-05-15T00:59:25.558Z,65.30
2018-05-15T01:01:52.748Z,65.70
2018-05-15T01:04:19.884Z,65.80
2018-05-15T01:06:46.286Z,65.80
2018-05-15T01:09:12.672Z,66.00
2018-05-15T01:11:39.099Z,66.30
2018-05-15T01:14:05.534Z,66.40
2018-05-15T01:16:31.945Z,65.80
2018-05-15T01:18:58.445Z,66.30
2018-05-15T01:21:24.863Z,66.30
2018-05-15T01:23:52.127Z,67.10
2018-05-15T01:26:18.553Z,66.80
2018-05-15T01:28:45.005Z,66.80
2018-05-15T01:31:11.433Z,66.60
2018-05-15T01:33:38.593Z,67.10
2018-05-15T01:36:05.024Z,67.10
2018-05-15T01:38:32.217Z,67.60
2018-05-15T01:40:58.623Z,67.60
2018-05-15T01:43:25.041Z,68.30
2018-05-15T01:45:51.412Z,67.00
2018-05-15T01:48:18.561Z,67.60
2018-05-15T01:50:44.957Z,67.60
2018-05-15T01:53:12.100Z,68.70
2018-05-15T01:55:39.279Z,68.90
2018-05-15T01:58:05.680Z,68.90
2018-05-15T02:00:32.101Z,68.80
2018-05-15T02:02:58.481Z,69.40
2018-05-15T02:05:24.871Z,69.90
2018-05-15T02:07:51.264Z,70.10
2018-05-15T02:10:17.705Z,70.00
2018-05-15T02:12:44.121Z,70.90
2018-05-15T02:15:10.507Z,71.50
2018-05-15T02:17:36.960Z,71.60
2018-05-15T02:20:04.118Z,72.30
2018-05-15T02:22:31.248Z,72.40
2018-05-15T02:24:58.433Z,72.30
2018-05-15T02:27:25.555Z,72.80
2018-05-15T02:29:52.753Z,72.50
2018-05-15T02:32:19.176Z,72.40
2018-05-15T02:34:45.564Z,72.80
2018-05-15T02:37:11.974Z,73.20
2018-05-15T02:39:38.424Z,72.80
2018-05-15T02:42:05.040Z,73.20
2018-05-15T02:44:31.485Z,74.00
2018-05-15T02:46:57.943Z,73.80
2018-05-15T02:49:24.328Z,74.20
2018-05-15T02:51:50.716Z,73.90
2018-05-15T02:54:17.168Z,74.20
2018-05-15T02:56:43.560Z,74.70
2018-05-15T02:59:09.960Z,75.00
2018-05-15T03:01:36.475Z,75.90
2018-05-15T03:04:02.931Z,75.70
2018-05-15T03:06:29.331Z,76.10
2018-05-15T03:08:55.827Z,76.30
2018-05-15T03:11:22.225Z,76.50
2018-05-15T03:13:48.612Z,76.60
2018-05-15T03:16:15.033Z,77.30
2018-05-15T03:18:42.160Z,77.90
2018-05-15T03:21:08.548Z,77.80
2018-05-15T03:23:34.983Z,78.60
2018-05-15T03:26:01.416Z,79.50
2018-05-15T03:28:27.811Z,79.80
2018-05-15T03:30:56.164Z,80.40
2018-05-15T03:33:22.583Z,80.40
2018-05-15T03:35:49.041Z,80.80
2018-05-15T03:38:15.461Z,81.20
2018-05-15T03:40:42.763Z,81.40
2018-05-15T03:43:09.905Z,81.60
2018-05-15T03:45:36.355Z,81.70
2018-05-15T03:48:02.780Z,81.90
2018-05-15T03:50:29.902Z,82.80
2018-05-15T03:52:57.073Z,82.70
2018-05-15T03:55:23.482Z,82.70
2018-05-15T03:57:49.919Z,82.90
2018-05-15T04:00:29.583Z,83.60
2018-05-15T04:03:08.291Z,83.50
2018-05-15T04:05:47.112Z,83.80
2018-05-15T04:08:13.552Z,84.30
2018-05-15T04:10:40.840Z,84.40
2018-05-15T04:13:08.105Z,84.40
2018-05-15T04:15:34.502Z,84.60
2018-05-15T04:18:00.897Z,84.70
2018-05-15T04:20:28.364Z,84.30
2018-05-15T04:22:54.942Z,84.90
2018-05-15T04:25:21.356Z,85.30
2018-05-15T04:27:47.776Z,85.40
2018-05-15T04:30:14.253Z,85.20
2018-05-15T04:32:40.668Z,85.80
2018-05-15T04:35:07.171Z,85.70
2018-05-15T04:37:33.527Z,85.20
2018-05-15T04:39:59.940Z,85.10
2018-05-15T04:42:27.205Z,85.60
2018-05-15T04:44:53.608Z,85.60
2018-05-15T04:47:20.061Z,85.50
2018-05-15T04:49:46.460Z,85.80
2018-05-15T04:52:12.888Z,85.30
2018-05-15T04:54:39.326Z,85.40
2018-05-15T04:57:05.724Z,85.20
2018-05-15T04:59:32.148Z,84.40
2018-05-15T05:01:58.592Z,83.60
2018-05-15T05:04:24.991Z,83.90
2018-05-15T05:06:51.393Z,82.50
2018-05-15T05:09:17.777Z,81.40
2018-05-15T05:11:44.282Z,78.20
2018-05-15T05:14:10.638Z,74.40
2018-05-15T05:16:37.049Z,69.60
2018-05-15T05:19:03.892Z,67.70
2018-05-15T05:21:30.396Z,67.40
2018-05-15T05:23:56.780Z,68.70
2018-05-15T05:26:23.214Z,70.30
2018-05-15T05:28:50.448Z,72.60
2018-05-15T05:31:17.614Z,73.90
2018-05-15T05:33:44.089Z,73.60
2018-05-15T05:36:10.528Z,72.70
2018-05-15T05:38:36.971Z,72.80
2018-05-15T05:41:03.369Z,72.40
2018-05-15T05:43:29.777Z,72.50
2018-05-15T05:45:56.171Z,73.00
2018-05-15T05:48:22.595Z,73.90
2018-05-15T05:50:48.986Z,74.20
2018-05-15T05:53:15.396Z,74.50
2018-05-15T05:55:42.572Z,73.20
2018-05-15T05:58:08.995Z,73.20
2018-05-15T06:00:36.196Z,72.20
2018-05-15T06:03:04.144Z,72.30
2018-05-15T06:05:31.640Z,71.80
2018-05-15T06:07:58.056Z,71.60
2018-05-15T06:10:24.479Z,71.80
2018-05-15T06:12:50.888Z,71.00
2018-05-15T06:15:17.303Z,69.20
2018-05-15T06:17:43.780Z,68.70
2018-05-15T06:20:10.185Z,66.60
2018-05-15T06:22:37.299Z,63.50
2018-05-15T06:25:04.485Z,64.20
2018-05-15T06:27:31.644Z,63.30
2018-05-15T06:29:58.103Z,63.20
2018-05-15T06:32:24.898Z,63.20
2018-05-15T06:34:52.019Z,64.30
2018-05-15T06:37:19.221Z,64.10
2018-05-15T06:39:45.677Z,64.70
2018-05-15T06:42:12.064Z,65.60
2018-05-15T06:44:39.295Z,62.50
2018-05-15T06:47:05.718Z,62.40
2018-05-15T06:49:32.112Z,62.60
2018-05-15T06:51:58.518Z,61.40
2018-05-15T06:54:25.762Z,60.20
2018-05-15T06:56:52.908Z,59.60
2018-05-15T06:59:20.032Z,57.20
2018-05-15T07:01:47.370Z,56.90
2018-05-15T07:04:13.754Z,56.90
2018-05-15T07:06:40.180Z,55.30
2018-05-15T07:09:07.441Z,54.30
2018-05-15T07:11:33.837Z,54.20
2018-05-15T07:14:00.294Z,54.30
2018-05-15T07:16:26.691Z,54.30
2018-05-15T07:18:53.089Z,53.90
2018-05-15T07:21:19.496Z,53.40
2018-05-15T07:23:47.511Z,53.10
2018-05-15T07:26:13.952Z,53.00
2018-05-15T07:28:40.423Z,51.90
2018-05-15T07:31:07.598Z,48.90
2018-05-15T07:33:34.076Z,48.90
2018-05-15T07:36:00.507Z,49.00
2018-05-15T07:38:26.987Z,48.00
2018-05-15T07:40:54.947Z,46.10
2018-05-15T07:43:22.126Z,42.80
2018-05-15T07:45:48.677Z,42.70
2018-05-15T07:48:15.144Z,41.10
2018-05-15T07:50:41.571Z,39.40
2018-05-15T07:53:08.101Z,36.40
2018-05-15T07:55:34.521Z,35.20
2018-05-15T07:58:00.954Z,36.20
2018-05-15T08:00:27.405Z,35.40
2018-05-15T08:02:53.810Z,35.70
2018-05-15T08:05:20.256Z,35.50
2018-05-15T08:07:46.756Z,35.70
2018-05-15T08:10:13.265Z,36.40
2018-05-15T08:12:39.723Z,36.70
2018-05-15T08:15:06.191Z,36.40
2018-05-15T08:17:32.634Z,36.50
2018-05-15T08:19:59.087Z,36.10
2018-05-15T08:22:25.618Z,36.90
2018-05-15T08:24:52.002Z,37.20
2018-05-15T08:27:18.468Z,37.80
2018-05-15T08:29:44.920Z,38.80
2018-05-15T08:32:11.345Z,40.10
2018-05-15T08:34:37.808Z,39.50
2018-05-15T08:37:05.020Z,34.70
2018-05-15T08:39:31.454Z,34.70
2018-05-15T08:41:57.915Z,33.60
2018-05-15T08:44:25.197Z,30.70
2018-05-15T08:46:51.643Z,30.70
2018-05-15T08:49:18.079Z,30.90
2018-05-15T08:51:44.597Z,32.20
2018-05-15T08:54:11.736Z,34.50
2018-05-15T08:56:38.886Z,35.90
2018-05-15T08:59:06.818Z,37.00
2018-05-15T09:01:33.254Z,37.10
2018-05-15T09:03:59.708Z,38.80
2018-05-15T09:06:26.238Z,40.30
2018-05-15T09:08:52.748Z,42.50
2018-05-15T09:11:19.252Z,43.20
2018-05-15T09:13:45.768Z,44.00
2018-05-15T09:16:12.221Z,45.00
2018-05-15T09:18:38.696Z,45.70
2018-05-15T09:21:05.167Z,46.40
2018-05-15T09:23:31.560Z,45.90
2018-05-15T09:25:57.978Z,46.60
2018-05-15T09:28:24.416Z,47.40
2018-05-15T09:30:50.859Z,47.90
2018-05-15T09:33:17.340Z,47.60
2018-05-15T09:35:43.800Z,45.50
2018-05-15T09:38:10.241Z,47.20
2018-05-15T09:40:37.473Z,48.20
2018-05-15T09:43:04.037Z,48.20
2018-05-15T09:45:30.463Z,47.20
2018-05-15T09:47:56.905Z,47.40
2018-05-15T09:50:23.407Z,47.90
2018-05-15T09:52:49.843Z,48.40
2018-05-15T09:55:16.292Z,48.10
2018-05-15T09:57:42.780Z,47.40
2018-05-15T10:00:09.240Z,47.70
2018-05-15T10:02:35.690Z,47.10
2018-05-15T10:05:02.208Z,47.50
2018-05-15T10:07:28.654Z,46.70
2018-05-15T10:09:55.170Z,45.10
2018-05-15T10:12:21.713Z,42.50
2018-05-15T10:14:48.159Z,42.40
2018-05-15T10:17:15.353Z,41.60
2018-05-15T10:19:41.825Z,41.60
2018-05-15T10:22:09.021Z,43.60
2018-05-15T10:24:35.466Z,43.60
2018-05-15T10:27:02.043Z,43.40
2018-05-15T10:29:28.477Z,43.00
2018-05-15T10:31:54.897Z,43.10
2018-05-15T10:34:22.072Z,42.00
2018-05-15T10:36:48.556Z,42.00
2018-05-15T10:39:14.980Z,43.00
2018-05-15T10:41:41.468Z,41.70
2018-05-15T10:44:07.927Z,42.20
2018-05-15T10:46:34.415Z,42.50
2018-05-15T10:49:01.661Z,43.40
2018-05-15T10:51:28.982Z,42.70
2018-05-15T10:53:55.409Z,42.70
2018-05-15T10:56:22.009Z,43.00
2018-05-15T10:58:48.521Z,43.10
2018-05-15T11:01:15.119Z,42.60
2018-05-15T11:03:48.544Z,42.50
2018-05-15T11:06:15.022Z,42.50
2018-05-15T11:08:41.455Z,42.50
2018-05-15T11:11:07.939Z,43.50
2018-05-15T11:13:34.415Z,43.00
2018-05-15T11:16:00.883Z,42.90
2018-05-15T11:18:47.127Z,42.70
2018-05-15T11:21:26.096Z,42.00
2018-05-15T11:24:04.664Z,42.70
2018-05-15T11:26:31.163Z,42.70
2018-05-15T11:28:57.621Z,42.60
2018-05-15T11:31:24.110Z,42.30
2018-05-15T11:33:51.138Z,42.80
2018-05-15T11:36:18.892Z,42.50
2018-05-15T11:38:46.759Z,44.10
2018-05-15T11:41:13.808Z,44.00
2018-05-15T11:43:40.856Z,42.50
2018-05-15T11:46:07.907Z,42.90
2018-05-15T11:48:35.618Z,42.80
2018-05-15T11:51:03.319Z,42.70
2018-05-15T11:53:29.968Z,42.70
2018-05-15T11:55:57.881Z,43.60
2018-05-15T11:58:24.994Z,43.40
2018-05-15T12:00:52.037Z,43.60
2018-05-15T12:03:19.079Z,42.30
2018-05-15T12:05:46.741Z,41.90
2018-05-15T12:08:14.726Z,41.80
2018-05-15T12:10:41.834Z,42.20
2018-05-15T12:13:08.806Z,42.80
2018-05-15T12:15:36.573Z,42.80
2018-05-15T12:18:03.657Z,42.90
2018-05-15T12:20:31.385Z,42.60
2018-05-15T12:22:58.430Z,42.60
2018-05-15T12:25:25.579Z,43.80
2018-05-15T12:27:52.731Z,42.10
2018-05-15T12:30:20.802Z,42.60
2018-05-15T12:32:48.675Z,41.60
2018-05-15T12:35:16.331Z,41.90
2018-05-15T12:37:43.383Z,41.90
2018-05-15T12:40:11.043Z,40.80
2018-05-15T12:42:37.985Z,40.60
2018-05-15T12:45:04.931Z,40.90
2018-05-15T12:47:32.141Z,41.90
2018-05-15T12:49:59.231Z,42.50
2018-05-15T12:52:26.336Z,42.20
2018-05-15T12:54:53.428Z,42.20
2018-05-15T12:57:20.377Z,42.90
2018-05-15T12:59:47.320Z,42.60
2018-05-15T13:02:14.264Z,42.20
2018-05-15T13:04:41.926Z,41.60
2018-05-15T13:07:09.587Z,41.50
2018-05-15T13:09:36.534Z,41.50
2018-05-15T13:12:04.209Z,40.90
2018-05-15T13:14:31.242Z,40.90
2018-05-15T13:16:58.906Z,41.80
2018-05-15T13:19:26.566Z,41.60
2018-05-15T13:21:53.512Z,41.60
2018-05-15T13:24:20.583Z,41.40
2018-05-15T13:26:47.709Z,40.40
2018-05-15T13:29:14.756Z,39.80
2018-05-15T13:31:42.419Z,41.60
2018-05-15T13:34:10.081Z,42.10
2018-05-15T13:36:37.599Z,42.10
2018-05-15T13:39:05.303Z,42.50
2018-05-15T13:41:32.965Z,41.50
2018-05-15T13:43:59.897Z,42.30
2018-05-15T13:46:26.753Z,42.20
2018-05-15T13:48:53.601Z,42.20
2018-05-15T13:51:20.534Z,41.80
2018-05-15T13:53:47.486Z,41.50
2018-05-15T13:56:14.431Z,41.60
2018-05-15T13:58:41.494Z,41.80
2018-05-15T14:01:08.424Z,40.70
2018-05-15T14:03:35.370Z,41.40
2018-05-15T14:06:02.316Z,41.70
2018-05-15T14:08:29.263Z,41.10
2018-05-15T14:10:56.212Z,40.60
2018-05-15T14:13:23.152Z,41.80
2018-05-15T14:15:50.100Z,42.40
2018-05-15T14:18:17.145Z,42.70
2018-05-15T14:20:44.192Z,42.50
2018-05-15T14:23:11.968Z,43.60
2018-05-15T14:25:39.938Z,43.90
2018-05-15T14:28:07.897Z,43.90
2018-05-15T14:30:35.668Z,43.30
2018-05-15T14:33:02.710Z,43.30
2018-05-15T14:35:29.863Z,42.30
2018-05-15T14:37:57.723Z,43.10
2018-05-15T14:40:24.672Z,43.10
2018-05-15T14:43:19.165Z,42.90
2018-05-15T14:45:45.583Z,42.90
2018-05-15T14:48:11.948Z,42.00
2018-05-15T14:50:50.720Z,41.70
2018-05-15T14:53:17.869Z,42.30
2018-05-15T14:55:44.326Z,42.30
2018-05-15T14:58:10.788Z,43.00
2018-05-15T15:00:37.210Z,44.60
2018-05-15T15:03:03.630Z,46.30
2018-05-15T15:05:30.099Z,45.40
2018-05-15T15:07:56.470Z,45.90
2018-05-15T15:10:22.841Z,46.10
2018-05-15T15:12:49.239Z,43.70
2018-05-15T15:15:15.594Z,43.70
2018-05-15T15:17:41.932Z,43.20
2018-05-15T15:20:09.076Z,43.80
2018-05-15T15:22:36.174Z,44.10
2018-05-15T15:25:02.558Z,44.10
2018-05-15T15:27:29.710Z,45.90
2018-05-15T15:29:56.096Z,45.50
2018-05-15T15:32:22.578Z,45.40
2018-05-15T15:34:49.688Z,46.50
2018-05-15T15:37:16.047Z,46.40
2018-05-15T15:39:42.417Z,45.80
2018-05-15T15:42:08.790Z,45.50
2018-05-15T15:44:35.139Z,45.40
2018-05-15T15:47:02.312Z,45.70
2018-05-15T15:49:28.690Z,45.70
2018-05-15T15:51:55.068Z,45.50
2018-05-15T15:54:22.204Z,46.30
2018-05-15T15:56:48.632Z,46.20
2018-05-15T15:59:15.049Z,46.40
2018-05-15T16:01:41.495Z,46.30
2018-05-15T16:04:08.054Z,46.40
2018-05-15T16:06:34.301Z,46.80
2018-05-15T16:09:00.633Z,46.80
2018-05-15T16:11:27.041Z,47.40
2018-05-15T16:13:54.157Z,47.30
2018-05-15T16:16:20.568Z,47.30
2018-05-15T16:18:46.846Z,47.40
2018-05-15T16:21:13.938Z,46.90
2018-05-15T16:23:40.356Z,46.90
2018-05-15T16:26:06.777Z,46.90
2018-05-15T16:28:33.914Z,47.10
2018-05-15T16:31:00.238Z,46.90
2018-05-15T16:33:27.378Z,47.00
2018-05-15T16:35:53.702Z,47.00
2018-05-15T16:38:20.609Z,47.70
2018-05-15T16:40:47.000Z,47.80
2018-05-15T16:43:13.332Z,48.40
2018-05-15T16:45:40.418Z,48.20
2018-05-15T16:48:06.838Z,48.10
2018-05-15T16:50:33.210Z,47.60
2018-05-15T16:52:59.546Z,47.80
2018-05-15T16:55:25.956Z,47.50
2018-05-15T16:57:52.297Z,47.90
2018-05-15T17:00:18.645Z,47.20
2018-05-15T17:02:45.139Z,47.30
2018-05-15T17:05:11.539Z,47.20
2018-05-15T17:07:38.652Z,47.30
2018-05-15T17:10:05.029Z,47.30
2018-05-15T17:12:32.127Z,47.40
2018-05-15T17:14:58.489Z,47.40
2018-05-15T17:17:24.932Z,47.60
2018-05-15T17:19:51.273Z,47.50
2018-05-15T17:22:18.358Z,48.10
2018-05-15T17:24:44.734Z,48.10
2018-05-15T17:27:11.129Z,48.40
2018-05-15T17:29:37.469Z,48.40
2018-05-15T17:32:04.184Z,48.70
2018-05-15T17:34:30.558Z,49.00
2018-05-15T17:36:56.908Z,48.90
2018-05-15T17:39:24.092Z,49.50
2018-05-15T17:41:50.772Z,49.50
2018-05-15T17:44:17.232Z,49.80
2018-05-15T17:46:44.341Z,50.00
2018-05-15T17:49:10.742Z,50.00
2018-05-15T17:51:37.086Z,50.10
2018-05-15T17:54:03.461Z,50.20
2018-05-15T17:56:29.893Z,50.40
2018-05-15T17:58:56.254Z,51.60
2018-05-15T18:01:24.121Z,52.30
2018-05-15T18:03:50.502Z,52.20
2018-05-15T18:06:16.893Z,53.00
2018-05-15T18:08:43.277Z,54.80
2018-05-15T18:11:09.690Z,56.70
2018-05-15T18:13:36.090Z,57.40
2018-05-15T18:16:02.546Z,58.20
2018-05-15T18:18:28.937Z,59.70
2018-05-15T18:20:55.299Z,60.70
2018-05-15T18:23:21.729Z,61.80
2018-05-15T18:25:48.099Z,62.20
2018-05-15T18:28:14.442Z,62.40
2018-05-15T18:30:40.849Z,62.30
2018-05-15T18:33:07.204Z,63.40
2018-05-15T18:35:33.575Z,65.40
2018-05-15T18:37:59.948Z,68.70
2018-05-15T18:40:26.657Z,72.20
2018-05-15T18:42:53.017Z,78.10
2018-05-15T18:45:19.439Z,89.30
2018-05-15T18:47:45.730Z,96.20
2018-05-15T18:50:12.814Z,99.90
2018-05-15T18:52:39.244Z,99.90
2018-05-15T18:55:05.608Z,99.90
2018-05-15T18:57:31.973Z,99.90
2018-05-15T18:59:59.121Z,99.90
2018-05-15T19:02:26.224Z,99.90
2018-05-15T19:04:52.611Z,99.90
2018-05-15T19:07:19.267Z,99.90
2018-05-15T19:09:45.640Z,99.90
2018-05-15T19:12:11.991Z,99.90
2018-05-15T19:14:38.351Z,99.90
2018-05-15T19:17:05.440Z,99.90
2018-05-15T19:19:31.864Z,99.90
2018-05-15T19:21:58.950Z,99.90
2018-05-15T19:24:25.330Z,99.90
2018-05-15T19:26:51.768Z,99.90
2018-05-15T19:29:18.167Z,99.90
2018-05-15T19:31:45.294Z,99.90
2018-05-15T19:34:17.837Z,99.90
2018-05-15T19:36:51.081Z,99.90
2018-05-15T19:39:17.639Z,99.90
2018-05-15T19:41:44.093Z,99.90
2018-05-15T19:44:10.465Z,99.90
2018-05-15T19:46:39.046Z,99.90
2018-05-15T19:49:06.179Z,99.90
2018-05-15T19:51:32.539Z,99.90
2018-05-15T19:54:00.405Z,99.90
2018-05-15T19:56:26.783Z,99.90
2018-05-15T19:58:53.163Z,99.90
2018-05-15T20:01:20.364Z,99.90
2018-05-15T20:03:46.736Z,99.90
2018-05-15T20:06:13.084Z,99.90
2018-05-15T20:08:39.476Z,99.90
2018-05-15T20:11:05.871Z,99.90
2018-05-15T20:13:32.249Z,99.90
2018-05-15T20:15:58.612Z,99.90
2018-05-15T20:18:24.946Z,99.90
2018-05-15T20:20:51.276Z,99.90
2018-05-15T20:23:17.651Z,99.90
2018-05-15T20:25:44.029Z,99.90
2018-05-15T20:28:10.418Z,99.90
2018-05-15T20:30:36.794Z,99.90
2018-05-15T20:33:03.138Z,99.90
2018-05-15T20:35:29.502Z,99.90
2018-05-15T20:37:56.625Z,99.90
2018-05-15T20:40:23.729Z,99.90
2018-05-15T20:42:50.209Z,99.90
2018-05-15T20:45:17.339Z,99.90
2018-05-15T20:47:43.683Z,99.90
2018-05-15T20:50:10.054Z,99.90
2018-05-15T20:52:36.461Z,99.90
2018-05-15T20:55:02.857Z,99.90
2018-05-15T20:57:29.980Z,99.90
2018-05-15T20:59:56.361Z,99.90
2018-05-15T21:02:23.472Z,99.90
2018-05-15T21:04:49.833Z,99.90
2018-05-15T21:07:16.290Z,99.90
2018-05-15T21:09:43.394Z,99.90
2018-05-15T21:12:09.750Z,99.90
2018-05-15T21:14:38.982Z,99.90
2018-05-15T21:17:05.326Z,99.90
2018-05-15T21:19:31.654Z,99.90
2018-05-15T21:21:58.109Z,99.90
2018-05-15T21:24:24.425Z,99.90
2018-05-15T21:26:50.777Z,99.90
2018-05-15T21:29:17.173Z,99.90
2018-05-15T21:31:43.552Z,99.90
2018-05-15T21:34:09.944Z,99.90
2018-05-15T21:36:36.341Z,99.90
2018-05-15T21:39:02.750Z,99.90
2018-05-15T21:41:29.104Z,99.90
2018-05-15T21:43:55.514Z,99.90
2018-05-15T21:46:22.650Z,99.90
2018-05-15T21:48:49.017Z,99.90
2018-05-15T21:51:16.141Z,99.90
2018-05-15T21:53:42.507Z,99.90
2018-05-15T21:56:08.848Z,99.90
2018-05-15T21:58:35.953Z,99.90
2018-05-15T22:01:02.339Z,99.90
2018-05-15T22:03:28.786Z,99.90
2018-05-15T22:05:55.090Z,99.90
2018-05-15T22:08:22.198Z,99.90
2018-05-15T22:10:48.611Z,99.90
2018-05-15T22:13:27.763Z,99.90
2018-05-15T22:16:06.636Z,99.90
2018-05-15T22:18:45.302Z,99.90
2018-05-15T22:21:23.855Z,99.90
2018-05-15T22:23:50.769Z,99.90
2018-05-15T22:26:17.119Z,99.90
2018-05-15T22:28:44.276Z,99.90
2018-05-15T22:31:10.653Z,99.90
2018-05-15T22:33:36.993Z,99.90
2018-05-15T22:36:03.386Z,99.90
2018-05-15T22:38:30.570Z,99.90
2018-05-15T22:40:56.939Z,99.90
2018-05-15T22:43:23.273Z,99.90
2018-05-15T22:45:49.678Z,99.90
2018-05-15T22:48:15.992Z,99.90
2018-05-15T22:50:42.343Z,99.90
2018-05-15T22:53:08.709Z,99.90
2018-05-15T22:55:35.073Z,99.90
2018-05-15T22:58:01.438Z,99.90
2018-05-15T23:00:27.826Z,99.90
2018-05-15T23:02:54.901Z,99.90
2018-05-15T23:05:21.267Z,99.90
2018-05-15T23:07:47.699Z,99.90
2018-05-15T23:10:14.054Z,99.90
2018-05-15T23:12:41.177Z,99.90
2018-05-15T23:15:07.553Z,99.90
2018-05-15T23:17:34.607Z,99.90
2018-05-15T23:20:01.685Z,99.90
2018-05-15T23:22:40.505Z,99.90
2018-05-15T23:25:06.817Z,99.90
2018-05-15T23:27:33.156Z,99.90
2018-05-15T23:30:00.248Z,99.90
2018-05-15T23:32:28.055Z,99.90
2018-05-15T23:34:54.398Z,99.90
2018-05-15T23:37:20.799Z,99.90
2018-05-15T23:39:47.929Z,99.90
2018-05-15T23:42:14.279Z,99.90
2018-05-15T23:44:41.259Z,99.90
2018-05-15T23:47:07.638Z,99.90
2018-05-15T23:49:33.973Z,99.90
2018-05-15T23:52:01.093Z,99.90
2018-05-15T23:54:28.241Z,99.90
2018-05-15T23:56:54.600Z,99.90
2018-05-15T23:59:20.985Z,99.90
